createdAt,value
2023-04-29T00:00:18.443Z,21.00
2023-04-29T00:02:20.359Z,21.10
2023-04-29T00:04:22.285Z,21.00
2023-04-29T00:06:24.289Z,21.00
2023-04-29T00:08:26.152Z,21.00
2023-04-29T00:10:28.840Z,21.00
2023-04-29T00:12:30.582Z,21.00
2023-04-29T00:14:32.383Z,21.00
2023-04-29T00:16:34.200Z,20.90
2023-04-29T00:18:36.157Z,21.00
2023-04-29T00:20:38.855Z,21.00
2023-04-29T00:22:40.614Z,21.00
2023-04-29T00:24:42.682Z,20.90
2023-04-29T00:26:44.459Z,21.00
2023-04-29T00:28:46.262Z,21.00
2023-04-29T00:30:48.184Z,21.00
2023-04-29T00:32:50.074Z,20.90
2023-04-29T00:34:51.963Z,20.90
2023-04-29T00:36:53.777Z,20.90
2023-04-29T00:38:55.618Z,20.90
2023-04-29T00:40:57.432Z,20.90
2023-04-29T00:42:59.241Z,20.90
2023-04-29T00:45:01.038Z,20.90
2023-04-29T00:47:02.996Z,20.90
2023-04-29T00:49:05.201Z,20.90
2023-04-29T00:51:07.643Z,20.90
2023-04-29T00:53:10.179Z,20.90
2023-04-29T00:55:12.223Z,20.90
2023-04-29T00:57:14.242Z,20.90
2023-04-29T00:59:16.166Z,20.90
2023-04-29T01:01:18.541Z,20.90
2023-04-29T01:03:20.574Z,20.90
2023-04-29T01:05:23.116Z,20.90
2023-04-29T01:07:30.719Z,20.90
2023-04-29T01:09:43.209Z,20.90
2023-04-29T01:11:52.803Z,20.90
2023-04-29T01:13:58.708Z,20.90
2023-04-29T01:16:00.985Z,20.90
2023-04-29T01:18:10.493Z,20.90
2023-04-29T01:20:13.782Z,20.90
2023-04-29T01:22:15.621Z,20.90
2023-04-29T01:24:17.518Z,20.80
2023-04-29T01:26:24.400Z,20.80
2023-04-29T01:28:59.543Z,20.80
2023-04-29T01:31:08.256Z,20.80
2023-04-29T01:33:29.199Z,20.80
2023-04-29T01:35:34.028Z,20.80
2023-04-29T01:37:41.123Z,20.80
2023-04-29T01:39:48.605Z,20.80
2023-04-29T01:42:09.144Z,20.80
2023-04-29T01:44:15.664Z,20.80
2023-04-29T01:46:17.896Z,20.80
2023-04-29T01:48:19.878Z,20.80
2023-04-29T01:50:21.699Z,20.80
2023-04-29T01:52:23.943Z,20.80
2023-04-29T01:54:31.210Z,20.80
2023-04-29T01:56:33.662Z,20.80
2023-04-29T01:58:50.091Z,20.70
2023-04-29T02:01:24.157Z,20.70
2023-04-29T02:03:27.159Z,20.70
2023-04-29T02:05:31.267Z,20.70
2023-04-29T02:07:33.354Z,20.70
2023-04-29T02:09:35.140Z,20.80
2023-04-29T02:11:43.122Z,20.70
2023-04-29T02:13:44.911Z,20.70
2023-04-29T02:15:48.087Z,20.70
2023-04-29T02:17:50.730Z,20.70
2023-04-29T02:19:55.194Z,20.70
2023-04-29T02:21:57.604Z,20.70
2023-04-29T02:24:00.976Z,20.70
2023-04-29T02:26:02.778Z,20.70
2023-04-29T02:28:04.658Z,20.70
2023-04-29T02:30:06.796Z,20.80
2023-04-29T02:32:08.752Z,20.80
2023-04-29T02:34:13.115Z,20.90
2023-04-29T02:36:14.960Z,20.90
2023-04-29T02:38:16.731Z,21.00
2023-04-29T02:40:18.575Z,20.90
2023-04-29T02:42:20.318Z,21.00
2023-04-29T02:44:22.073Z,21.00
2023-04-29T02:46:23.933Z,21.00
2023-04-29T02:48:26.054Z,21.00
2023-04-29T02:50:27.771Z,21.00
2023-04-29T02:52:29.618Z,21.10
2023-04-29T02:54:31.427Z,21.00
2023-04-29T02:56:33.382Z,21.00
2023-04-29T02:58:35.200Z,21.00
2023-04-29T03:00:37.062Z,21.10
2023-04-29T03:02:39.039Z,21.10
2023-04-29T03:04:41.238Z,21.10
2023-04-29T03:06:42.997Z,21.10
2023-04-29T03:08:46.351Z,21.10
2023-04-29T03:10:48.098Z,21.10
2023-04-29T03:12:49.892Z,21.10
2023-04-29T03:14:51.932Z,21.10
2023-04-29T03:16:53.773Z,21.10
2023-04-29T03:18:55.676Z,21.20
2023-04-29T03:20:58.711Z,21.20
2023-04-29T03:23:00.608Z,21.20
2023-04-29T03:25:02.516Z,21.20
2023-04-29T03:27:04.483Z,21.20
2023-04-29T03:29:08.196Z,21.20
2023-04-29T03:31:10.189Z,21.20
2023-04-29T03:33:12.112Z,21.20
2023-04-29T03:35:15.742Z,21.10
2023-04-29T03:37:37.796Z,21.20
2023-04-29T03:39:58.253Z,21.10
2023-04-29T03:42:00.167Z,21.10
2023-04-29T03:44:02.009Z,21.20
2023-04-29T03:46:04.709Z,21.20
2023-04-29T03:48:06.717Z,21.20
2023-04-29T03:50:09.358Z,21.20
2023-04-29T03:52:11.547Z,21.10
2023-04-29T03:54:13.879Z,21.10
2023-04-29T03:56:17.311Z,21.20
2023-04-29T03:58:19.489Z,21.20
2023-04-29T04:00:21.319Z,21.20
2023-04-29T04:02:28.538Z,21.20
2023-04-29T04:04:30.569Z,21.20
2023-04-29T04:06:33.993Z,21.20
2023-04-29T04:08:35.774Z,21.20
2023-04-29T04:11:03.822Z,21.20
2023-04-29T04:13:11.765Z,21.20
2023-04-29T04:15:13.679Z,21.20
2023-04-29T04:17:15.501Z,21.10
2023-04-29T04:19:17.475Z,21.20
2023-04-29T04:21:20.725Z,21.10
2023-04-29T04:23:30.695Z,21.20
2023-04-29T04:25:33.294Z,21.10
2023-04-29T04:27:48.309Z,21.10
2023-04-29T04:30:00.408Z,21.10
2023-04-29T04:32:06.868Z,21.10
2023-04-29T04:34:09.297Z,21.10
2023-04-29T04:36:11.453Z,21.10
2023-04-29T04:38:13.633Z,21.10
2023-04-29T04:40:15.693Z,21.10
2023-04-29T04:42:37.398Z,21.20
2023-04-29T04:44:39.303Z,21.20
2023-04-29T04:46:42.785Z,21.10
2023-04-29T04:48:50.397Z,21.10
2023-04-29T04:50:54.333Z,21.10
2023-04-29T04:52:56.354Z,21.10
2023-04-29T04:55:24.412Z,21.10
2023-04-29T04:57:26.708Z,21.20
2023-04-29T04:59:30.686Z,21.10
2023-04-29T05:01:32.610Z,21.20
2023-04-29T05:03:34.693Z,21.10
2023-04-29T05:05:36.595Z,21.10
2023-04-29T05:07:38.444Z,21.10
2023-04-29T05:09:40.338Z,21.10
2023-04-29T05:11:42.137Z,21.10
2023-04-29T05:13:47.663Z,21.10
2023-04-29T05:15:49.426Z,21.10
2023-04-29T05:17:55.978Z,21.10
2023-04-29T05:19:59.502Z,21.10
2023-04-29T05:22:01.367Z,21.10
2023-04-29T05:24:03.266Z,21.10
2023-04-29T05:26:05.140Z,21.10
2023-04-29T05:28:07.318Z,21.00
2023-04-29T05:30:11.396Z,21.00
2023-04-29T05:32:13.166Z,21.10
2023-04-29T05:34:15.092Z,21.10
2023-04-29T05:36:16.943Z,21.00
2023-04-29T05:38:18.751Z,21.00
2023-04-29T05:40:31.003Z,21.10
2023-04-29T05:42:51.566Z,21.10
2023-04-29T05:44:53.397Z,21.10
2023-04-29T05:46:55.195Z,21.20
2023-04-29T05:48:56.928Z,21.20
2023-04-29T05:51:00.069Z,21.20
2023-04-29T05:53:01.993Z,21.10
2023-04-29T05:55:04.205Z,21.10
2023-04-29T05:57:05.982Z,21.10
2023-04-29T05:59:07.843Z,21.10
2023-04-29T06:01:09.616Z,21.20
2023-04-29T06:03:11.545Z,21.20
2023-04-29T06:05:13.599Z,21.20
2023-04-29T06:07:26.983Z,21.20
2023-04-29T06:09:33.750Z,21.20
2023-04-29T06:11:37.201Z,21.20
2023-04-29T06:13:38.964Z,21.20
2023-04-29T06:15:41.127Z,21.20
2023-04-29T06:17:43.008Z,21.20
2023-04-29T06:19:44.847Z,21.20
2023-04-29T06:21:46.608Z,21.10
2023-04-29T06:23:48.363Z,21.10
2023-04-29T06:25:52.971Z,21.20
2023-04-29T06:27:59.502Z,21.20
2023-04-29T06:30:03.464Z,21.20
2023-04-29T06:32:05.699Z,21.20
2023-04-29T06:34:07.506Z,21.20
2023-04-29T06:36:13.460Z,21.20
2023-04-29T06:38:33.909Z,21.20
2023-04-29T06:40:56.170Z,21.20
2023-04-29T06:43:20.731Z,21.30
2023-04-29T06:45:55.174Z,21.30
2023-04-29T06:48:04.093Z,21.30
2023-04-29T06:50:24.041Z,21.30
2023-04-29T06:52:25.872Z,21.30
2023-04-29T06:54:27.872Z,21.40
2023-04-29T06:56:29.743Z,21.40
2023-04-29T06:58:31.509Z,21.40
2023-04-29T07:00:33.351Z,21.50
2023-04-29T07:02:35.225Z,21.50
2023-04-29T07:04:37.838Z,21.50
2023-04-29T07:06:39.641Z,21.50
2023-04-29T07:08:41.564Z,21.50
2023-04-29T07:10:43.313Z,21.50
2023-04-29T07:12:45.170Z,21.50
2023-04-29T07:14:46.909Z,21.50
2023-04-29T07:16:52.951Z,21.50
2023-04-29T07:18:54.784Z,21.50
2023-04-29T07:21:00.732Z,21.60
2023-04-29T07:23:02.619Z,21.60
2023-04-29T07:25:04.618Z,21.60
2023-04-29T07:27:06.773Z,21.60
2023-04-29T07:29:08.582Z,21.60
2023-04-29T07:31:10.688Z,21.70
2023-04-29T07:33:12.525Z,21.70
2023-04-29T07:35:15.346Z,21.70
2023-04-29T07:37:17.122Z,21.70
2023-04-29T07:39:18.960Z,21.70
2023-04-29T07:41:23.624Z,21.70
2023-04-29T07:43:25.403Z,21.80
2023-04-29T07:45:27.213Z,21.70
2023-04-29T07:47:28.977Z,21.70
2023-04-29T07:49:30.852Z,21.80
2023-04-29T07:51:32.607Z,21.80
2023-04-29T07:53:34.409Z,21.70
2023-04-29T07:55:37.690Z,21.70
2023-04-29T07:57:40.230Z,21.70
2023-04-29T07:59:41.958Z,21.70
2023-04-29T08:01:43.815Z,21.70
2023-04-29T08:03:46.496Z,21.70
2023-04-29T08:05:50.912Z,21.70
2023-04-29T08:07:52.846Z,21.70
2023-04-29T08:09:54.694Z,21.80
2023-04-29T08:11:56.423Z,21.80
2023-04-29T08:13:58.245Z,21.80
2023-04-29T08:16:00.079Z,21.70
2023-04-29T08:18:02.054Z,21.80
2023-04-29T08:20:04.156Z,21.80
2023-04-29T08:22:05.977Z,21.80
2023-04-29T08:24:07.696Z,21.80
2023-04-29T08:26:10.160Z,21.90
2023-04-29T08:28:11.882Z,21.90
2023-04-29T08:30:13.694Z,21.90
2023-04-29T08:32:15.446Z,21.90
2023-04-29T08:34:17.279Z,21.90
2023-04-29T08:36:19.012Z,21.90
2023-04-29T08:38:20.838Z,21.90
2023-04-29T08:40:22.575Z,21.90
2023-04-29T08:42:32.343Z,21.90
2023-04-29T08:44:34.118Z,21.90
2023-04-29T08:46:35.955Z,21.90
2023-04-29T08:48:37.723Z,21.90
2023-04-29T08:50:40.619Z,21.90
2023-04-29T08:52:42.392Z,21.90
2023-04-29T08:54:44.194Z,21.90
2023-04-29T08:56:46.357Z,21.90
2023-04-29T08:58:50.427Z,21.90
2023-04-29T09:00:52.416Z,21.90
2023-04-29T09:02:56.244Z,22.00
2023-04-29T09:05:04.532Z,22.00
2023-04-29T09:07:07.418Z,22.00
2023-04-29T09:09:09.422Z,22.00
2023-04-29T09:11:11.624Z,22.10
2023-04-29T09:13:29.316Z,22.00
2023-04-29T09:15:35.852Z,22.00
2023-04-29T09:17:48.155Z,22.00
2023-04-29T09:19:50.023Z,22.00
2023-04-29T09:21:54.687Z,21.90
2023-04-29T09:24:00.306Z,21.90
2023-04-29T09:26:02.124Z,22.00
2023-04-29T09:28:16.151Z,22.00
2023-04-29T09:30:17.934Z,22.00
2023-04-29T09:32:19.834Z,22.00
2023-04-29T09:34:31.535Z,22.10
2023-04-29T09:36:36.047Z,22.10
2023-04-29T09:38:53.024Z,22.10
2023-04-29T09:40:59.660Z,22.10
2023-04-29T09:43:02.990Z,22.20
2023-04-29T09:45:04.972Z,22.10
2023-04-29T09:47:07.567Z,22.20
2023-04-29T09:49:35.872Z,22.10
2023-04-29T09:51:51.858Z,22.10
2023-04-29T09:53:53.712Z,22.10
2023-04-29T09:56:02.430Z,22.10
2023-04-29T09:58:04.245Z,22.00
2023-04-29T10:00:06.407Z,22.10
2023-04-29T10:02:16.618Z,22.10
2023-04-29T10:04:19.385Z,22.10
2023-04-29T10:06:21.787Z,22.10
2023-04-29T10:08:23.656Z,22.10
2023-04-29T10:10:25.534Z,22.10
2023-04-29T10:12:27.315Z,22.10
2023-04-29T10:14:30.800Z,22.10
2023-04-29T10:16:38.837Z,22.10
2023-04-29T10:18:41.519Z,22.10
2023-04-29T10:20:46.885Z,22.20
2023-04-29T10:22:49.652Z,22.20
2023-04-29T10:24:52.125Z,22.20
2023-04-29T10:26:54.506Z,22.20
2023-04-29T10:28:56.656Z,22.20
2023-04-29T10:31:01.394Z,22.20
2023-04-29T10:33:03.658Z,22.20
2023-04-29T10:35:07.884Z,22.20
2023-04-29T10:37:12.762Z,22.20
2023-04-29T10:39:21.829Z,22.20
2023-04-29T10:41:27.879Z,22.20
2023-04-29T10:43:29.959Z,22.20
2023-04-29T10:45:32.335Z,22.20
2023-04-29T10:47:34.129Z,22.20
2023-04-29T10:49:36.200Z,22.20
2023-04-29T10:51:42.168Z,22.20
2023-04-29T10:54:03.528Z,22.20
2023-04-29T10:56:08.128Z,22.30
2023-04-29T10:58:28.342Z,22.30
2023-04-29T11:00:31.368Z,22.30
2023-04-29T11:02:33.166Z,22.30
2023-04-29T11:04:35.093Z,22.30
2023-04-29T11:06:36.847Z,22.30
2023-04-29T11:08:38.738Z,22.30
2023-04-29T11:10:43.794Z,22.40
2023-04-29T11:12:45.791Z,22.40
2023-04-29T11:14:51.298Z,22.40
2023-04-29T11:16:54.666Z,22.40
2023-04-29T11:19:06.829Z,22.40
2023-04-29T11:21:08.677Z,22.40
2023-04-29T11:23:10.858Z,22.40
2023-04-29T11:25:12.637Z,22.40
2023-04-29T11:27:15.146Z,22.40
2023-04-29T11:29:18.269Z,22.40
2023-04-29T11:31:20.156Z,22.50
2023-04-29T11:33:22.058Z,22.40
2023-04-29T11:35:23.839Z,22.50
2023-04-29T11:37:26.721Z,22.50
2023-04-29T11:39:28.460Z,22.50
2023-04-29T11:41:30.586Z,22.40
2023-04-29T11:43:32.328Z,22.50
2023-04-29T11:45:35.480Z,22.50
2023-04-29T11:47:37.303Z,22.50
2023-04-29T11:49:39.229Z,22.50
2023-04-29T11:51:41.075Z,22.60
2023-04-29T11:53:43.077Z,22.60
2023-04-29T11:55:45.127Z,22.60
2023-04-29T11:57:49.023Z,22.60
2023-04-29T11:59:50.814Z,22.60
2023-04-29T12:01:52.576Z,22.60
2023-04-29T12:03:57.855Z,22.60
2023-04-29T12:06:01.667Z,22.60
2023-04-29T12:08:03.438Z,22.60
2023-04-29T12:10:11.832Z,22.60
2023-04-29T12:12:14.763Z,22.60
2023-04-29T12:14:16.645Z,22.60
2023-04-29T12:16:18.487Z,22.60
2023-04-29T12:18:20.563Z,22.60
2023-04-29T12:20:22.429Z,22.60
2023-04-29T12:22:30.909Z,22.60
2023-04-29T12:24:36.319Z,22.60
2023-04-29T12:26:40.007Z,22.60
2023-04-29T12:28:42.868Z,22.60
2023-04-29T12:30:45.678Z,22.60
2023-04-29T12:32:47.401Z,22.60
2023-04-29T12:34:50.717Z,22.60
2023-04-29T12:36:54.558Z,22.60
2023-04-29T12:38:56.333Z,22.60
2023-04-29T12:41:01.167Z,22.60
2023-04-29T12:43:10.276Z,22.70
2023-04-29T12:45:28.776Z,22.70
2023-04-29T12:47:33.770Z,22.70
2023-04-29T12:49:35.868Z,22.70
2023-04-29T12:51:37.677Z,22.70
2023-04-29T12:53:39.631Z,22.70
2023-04-29T12:55:41.861Z,22.70
2023-04-29T12:57:44.183Z,22.70
2023-04-29T12:59:46.013Z,22.80
2023-04-29T13:01:47.724Z,22.80
2023-04-29T13:03:49.846Z,22.80
2023-04-29T13:05:51.908Z,22.80
2023-04-29T13:07:54.082Z,22.80
2023-04-29T13:09:55.835Z,22.80
2023-04-29T13:11:57.777Z,22.80
2023-04-29T13:13:59.644Z,22.80
2023-04-29T13:16:01.644Z,22.80
2023-04-29T13:18:03.538Z,22.90
2023-04-29T13:20:05.909Z,22.90
2023-04-29T13:22:07.642Z,22.90
2023-04-29T13:24:09.490Z,22.90
2023-04-29T13:26:11.216Z,22.90
2023-04-29T13:28:13.011Z,23.00
2023-04-29T13:30:14.773Z,23.00
2023-04-29T13:32:18.482Z,23.00
2023-04-29T13:34:21.378Z,23.00
2023-04-29T13:36:23.269Z,23.00
2023-04-29T13:38:25.015Z,23.00
2023-04-29T13:40:28.269Z,23.00
2023-04-29T13:42:32.683Z,23.00
2023-04-29T13:46:47.826Z,23.00
2023-04-29T13:49:11.174Z,23.00
2023-04-29T13:53:35.501Z,23.00
2023-04-29T13:59:52.353Z,23.00
2023-04-29T14:02:23.281Z,23.00
2023-04-29T14:04:16.611Z,23.00
2023-04-29T14:06:18.476Z,23.00
2023-04-29T14:08:20.172Z,23.00
2023-04-29T14:10:22.113Z,23.00
2023-04-29T14:12:23.859Z,23.00
2023-04-29T14:14:25.621Z,23.00
2023-04-29T14:16:27.526Z,23.00
2023-04-29T14:18:29.452Z,23.00
2023-04-29T14:20:31.245Z,23.00
2023-04-29T14:22:33.093Z,23.00
2023-04-29T14:24:34.890Z,23.10
2023-04-29T14:26:36.663Z,23.10
2023-04-29T14:28:38.457Z,23.10
2023-04-29T14:30:40.316Z,23.10
2023-04-29T14:32:42.075Z,23.10
2023-04-29T14:34:43.878Z,23.10
2023-04-29T14:36:46.694Z,23.10
2023-04-29T14:38:48.694Z,23.20
2023-04-29T14:40:50.515Z,23.20
2023-04-29T14:42:52.394Z,23.20
2023-04-29T14:44:54.258Z,23.20
2023-04-29T14:46:56.907Z,23.20
2023-04-29T14:48:58.678Z,23.20
2023-04-29T14:51:00.466Z,23.20
2023-04-29T14:53:02.207Z,23.20
2023-04-29T14:55:04.119Z,23.20
2023-04-29T14:57:05.864Z,23.20
2023-04-29T15:01:09.876Z,23.20
2023-04-29T15:03:20.179Z,23.20
2023-04-29T15:05:24.057Z,23.20
2023-04-29T15:07:26.407Z,23.10
2023-04-29T15:09:28.106Z,23.10
2023-04-29T15:11:29.969Z,23.10
2023-04-29T15:13:32.226Z,23.10
2023-04-29T15:15:34.178Z,23.10
2023-04-29T15:17:35.975Z,23.10
2023-04-29T15:19:37.790Z,23.10
2023-04-29T15:21:39.494Z,23.10
2023-04-29T15:23:41.314Z,23.00
2023-04-29T15:25:43.039Z,23.00
2023-04-29T15:27:44.809Z,23.00
2023-04-29T15:29:46.629Z,23.00
2023-04-29T15:31:48.487Z,23.00
2023-04-29T15:33:53.461Z,23.00
2023-04-29T15:35:55.822Z,23.00
2023-04-29T15:37:57.544Z,23.00
2023-04-29T15:39:59.414Z,23.00
2023-04-29T15:42:01.230Z,23.00
2023-04-29T15:44:02.999Z,23.00
2023-04-29T15:46:04.824Z,23.00
2023-04-29T15:48:06.722Z,23.00
2023-04-29T15:50:08.832Z,23.00
2023-04-29T15:52:10.696Z,23.00
2023-04-29T15:54:12.466Z,23.00
2023-04-29T15:56:14.321Z,23.00
2023-04-29T15:58:16.036Z,23.00
2023-04-29T16:00:17.852Z,23.00
2023-04-29T16:02:19.635Z,23.00
2023-04-29T16:04:21.454Z,23.00
2023-04-29T16:06:23.296Z,23.00
2023-04-29T16:08:25.301Z,23.00
2023-04-29T16:10:27.052Z,23.00
2023-04-29T16:12:28.850Z,23.00
2023-04-29T16:14:30.572Z,23.00
2023-04-29T16:16:32.434Z,23.00
2023-04-29T16:18:34.297Z,23.00
2023-04-29T16:20:36.143Z,23.00
2023-04-29T16:22:37.846Z,23.00
2023-04-29T16:24:39.777Z,23.00
2023-04-29T16:26:41.705Z,22.90
2023-04-29T16:28:43.520Z,23.00
2023-04-29T16:30:45.276Z,22.90
2023-04-29T16:32:47.046Z,22.90
2023-04-29T16:34:48.830Z,22.90
2023-04-29T16:36:51.132Z,22.90
2023-04-29T16:38:52.866Z,22.90
2023-04-29T16:40:54.869Z,22.90
2023-04-29T16:42:56.618Z,22.90
2023-04-29T16:44:58.382Z,22.90
2023-04-29T16:47:00.133Z,22.90
2023-04-29T16:49:01.968Z,22.90
2023-04-29T16:51:03.796Z,22.90
2023-04-29T16:53:05.575Z,22.90
2023-04-29T16:55:07.501Z,22.90
2023-04-29T16:57:09.311Z,22.90
2023-04-29T16:59:11.036Z,22.90
2023-04-29T17:01:12.953Z,22.90
2023-04-29T17:03:15.073Z,22.80
2023-04-29T17:05:17.192Z,22.80
2023-04-29T17:07:19.132Z,22.80
2023-04-29T17:09:20.903Z,22.80
2023-04-29T17:11:22.642Z,22.80
2023-04-29T17:13:24.450Z,22.80
2023-04-29T17:15:26.439Z,22.80
2023-04-29T17:17:28.250Z,22.80
2023-04-29T17:19:30.075Z,22.80
2023-04-29T17:21:31.965Z,22.80
2023-04-29T17:23:33.699Z,22.70
2023-04-29T17:25:37.028Z,22.70
2023-04-29T17:27:38.747Z,22.70
2023-04-29T17:29:40.830Z,22.70
2023-04-29T17:31:42.606Z,22.70
2023-04-29T17:33:44.430Z,22.70
2023-04-29T17:35:46.224Z,22.70
2023-04-29T17:37:48.058Z,22.70
2023-04-29T17:39:49.882Z,22.70
2023-04-29T17:41:51.706Z,22.70
2023-04-29T17:43:53.505Z,22.70
2023-04-29T17:45:57.804Z,22.60
2023-04-29T17:47:59.596Z,22.60
2023-04-29T17:50:02.476Z,22.60
2023-04-29T17:52:04.803Z,22.60
2023-04-29T17:54:07.080Z,22.60
2023-04-29T17:56:08.889Z,22.60
2023-04-29T17:58:10.744Z,22.60
2023-04-29T18:00:12.708Z,22.50
2023-04-29T18:02:14.503Z,22.50
2023-04-29T18:04:16.232Z,22.50
2023-04-29T18:06:18.073Z,22.50
2023-04-29T18:08:19.764Z,22.50
2023-04-29T18:10:21.594Z,22.50
2023-04-29T18:12:23.421Z,22.50
2023-04-29T18:14:25.224Z,22.50
2023-04-29T18:16:26.985Z,22.50
2023-04-29T18:18:28.980Z,22.50
2023-04-29T18:20:30.905Z,22.50
2023-04-29T18:22:32.682Z,22.50
2023-04-29T18:24:34.463Z,22.40
2023-04-29T18:26:36.285Z,22.40
2023-04-29T18:28:38.029Z,22.40
2023-04-29T18:30:39.849Z,22.40
2023-04-29T18:32:41.711Z,22.40
2023-04-29T18:34:43.576Z,22.40
2023-04-29T18:36:45.298Z,22.40
2023-04-29T18:38:47.093Z,22.40
2023-04-29T18:40:48.860Z,22.40
2023-04-29T18:42:51.022Z,22.40
2023-04-29T18:44:52.762Z,22.40
2023-04-29T18:46:54.502Z,22.30
2023-04-29T18:48:56.466Z,22.30
2023-04-29T18:50:58.314Z,22.30
2023-04-29T18:53:00.038Z,22.30
2023-04-29T18:55:01.831Z,22.30
2023-04-29T18:57:03.605Z,22.30
2023-04-29T18:59:05.354Z,22.30
2023-04-29T19:01:07.079Z,22.30
2023-04-29T19:03:09.024Z,22.30
2023-04-29T19:05:10.888Z,22.30
2023-04-29T19:07:12.669Z,22.30
2023-04-29T19:09:14.428Z,22.30
2023-04-29T19:11:16.273Z,22.20
2023-04-29T19:13:17.991Z,22.20
2023-04-29T19:15:19.825Z,22.20
2023-04-29T19:17:21.582Z,22.20
2023-04-29T19:19:23.393Z,22.20
2023-04-29T19:21:25.193Z,22.20
2023-04-29T19:23:26.993Z,22.20
2023-04-29T19:25:28.736Z,22.20
2023-04-29T19:27:30.556Z,22.20
2023-04-29T19:29:32.353Z,22.20
2023-04-29T19:31:34.314Z,22.20
2023-04-29T19:33:36.199Z,22.10
2023-04-29T19:35:37.992Z,22.10
2023-04-29T19:37:40.115Z,22.10
2023-04-29T19:39:42.000Z,22.10
2023-04-29T19:41:44.163Z,22.10
2023-04-29T19:43:46.055Z,22.10
2023-04-29T19:45:47.802Z,22.10
2023-04-29T19:47:49.605Z,22.10
2023-04-29T19:49:51.525Z,22.10
2023-04-29T19:51:53.633Z,22.10
2023-04-29T19:53:55.974Z,22.10
2023-04-29T19:55:57.796Z,22.10
2023-04-29T19:57:59.578Z,22.10
2023-04-29T20:00:01.443Z,22.10
2023-04-29T20:02:03.285Z,22.10
2023-04-29T20:04:05.235Z,22.10
2023-04-29T20:06:07.077Z,22.10
2023-04-29T20:08:08.904Z,22.00
2023-04-29T20:10:15.093Z,22.00
2023-04-29T20:12:16.938Z,22.00
2023-04-29T20:14:18.658Z,22.00
2023-04-29T20:16:20.475Z,22.00
2023-04-29T20:18:22.294Z,22.00
2023-04-29T20:20:24.200Z,22.00
2023-04-29T20:22:25.930Z,22.00
2023-04-29T20:24:27.713Z,22.00
2023-04-29T20:26:29.422Z,22.00
2023-04-29T20:28:31.223Z,22.00
2023-04-29T20:30:33.109Z,22.00
2023-04-29T20:32:35.018Z,22.00
2023-04-29T20:34:36.800Z,22.00
2023-04-29T20:36:38.631Z,22.00
2023-04-29T20:38:40.392Z,22.00
2023-04-29T20:40:42.249Z,22.00
2023-04-29T20:42:44.608Z,22.00
2023-04-29T20:44:46.410Z,22.00
2023-04-29T20:46:48.573Z,21.90
2023-04-29T20:48:50.351Z,21.90
2023-04-29T20:50:52.114Z,21.90
2023-04-29T20:52:53.955Z,21.90
2023-04-29T20:54:55.742Z,21.90
2023-04-29T20:56:57.511Z,21.90
2023-04-29T20:58:59.293Z,21.90
2023-04-29T21:01:01.191Z,21.90
2023-04-29T21:03:03.020Z,21.90
2023-04-29T21:05:05.117Z,21.90
2023-04-29T21:07:06.957Z,21.90
2023-04-29T21:09:08.775Z,21.90
2023-04-29T21:11:10.526Z,21.90
2023-04-29T21:13:12.350Z,21.90
2023-04-29T21:15:14.182Z,21.90
2023-04-29T21:17:15.991Z,21.90
2023-04-29T21:19:17.758Z,21.80
2023-04-29T21:21:19.540Z,21.90
2023-04-29T21:23:21.279Z,21.90
2023-04-29T21:25:23.075Z,21.90
2023-04-29T21:27:24.799Z,21.80
2023-04-29T21:29:26.564Z,21.80
2023-04-29T21:31:29.521Z,21.80
2023-04-29T21:33:31.357Z,21.80
2023-04-29T21:35:33.153Z,21.80
2023-04-29T21:37:35.037Z,21.80
2023-04-29T21:39:36.741Z,21.80
2023-04-29T21:41:39.397Z,21.80
2023-04-29T21:43:41.153Z,21.80
2023-04-29T21:45:43.582Z,21.80
2023-04-29T21:47:45.405Z,21.70
2023-04-29T21:49:47.535Z,21.80
2023-04-29T21:51:49.410Z,21.70
2023-04-29T21:53:51.437Z,21.70
2023-04-29T21:55:53.194Z,21.70
2023-04-29T21:57:55.041Z,21.70
2023-04-29T21:59:56.786Z,21.70
2023-04-29T22:01:58.623Z,21.70
2023-04-29T22:04:00.334Z,21.70
2023-04-29T22:06:02.219Z,21.70
2023-04-29T22:08:04.781Z,21.70
2023-04-29T22:10:06.907Z,21.70
2023-04-29T22:12:08.664Z,21.70
2023-04-29T22:14:10.501Z,21.70
2023-04-29T22:16:12.455Z,21.70
2023-04-29T22:18:14.274Z,21.70
2023-04-29T22:20:16.047Z,21.70
2023-04-29T22:22:17.910Z,21.70
2023-04-29T22:24:19.686Z,21.60
2023-04-29T22:26:21.541Z,21.60
2023-04-29T22:28:23.276Z,21.60
2023-04-29T22:30:25.132Z,21.60
2023-04-29T22:32:26.917Z,21.60
2023-04-29T22:34:28.742Z,21.60
2023-04-29T22:36:30.487Z,21.60
2023-04-29T22:38:32.349Z,21.60
2023-04-29T22:40:34.072Z,21.60
2023-04-29T22:42:35.852Z,21.60
2023-04-29T22:44:37.662Z,21.60
2023-04-29T22:46:39.458Z,21.60
2023-04-29T22:48:41.274Z,21.60
2023-04-29T22:50:49.261Z,21.60
2023-04-29T22:52:51.016Z,21.60
2023-04-29T22:54:53.002Z,21.60
2023-04-29T22:56:54.764Z,21.60
2023-04-29T22:58:56.550Z,21.60
2023-04-29T23:00:58.314Z,21.60
2023-04-29T23:03:00.240Z,21.60
2023-04-29T23:05:02.158Z,21.60
2023-04-29T23:07:04.053Z,21.60
2023-04-29T23:09:05.811Z,21.60
2023-04-29T23:11:08.106Z,21.60
2023-04-29T23:13:09.828Z,21.60
2023-04-29T23:15:11.618Z,21.60
2023-04-29T23:17:13.379Z,21.60
2023-04-29T23:19:15.245Z,21.50
2023-04-29T23:21:17.000Z,21.50
2023-04-29T23:23:18.822Z,21.50
2023-04-29T23:25:20.572Z,21.50
2023-04-29T23:27:22.387Z,21.50
2023-04-29T23:29:24.166Z,21.50
2023-04-29T23:31:25.970Z,21.50
2023-04-29T23:33:28.058Z,21.50
2023-04-29T23:35:29.942Z,21.50
2023-04-29T23:37:31.667Z,21.50
2023-04-29T23:39:33.445Z,21.50
2023-04-29T23:41:35.191Z,21.50
2023-04-29T23:43:36.930Z,21.50
2023-04-29T23:45:38.661Z,21.50
2023-04-29T23:47:40.513Z,21.50
2023-04-29T23:49:42.276Z,21.50
2023-04-29T23:51:44.080Z,21.50
2023-04-29T23:53:45.835Z,21.50
2023-04-29T23:55:48.667Z,21.50
2023-04-29T23:57:50.375Z,21.50
2023-04-29T23:59:52.324Z,21.50
